HBLMR EGPA-EGEO

Flight info

Callsign HBLMR
Flight time 1h 8m
Altitude 10000
Route WIK DCT INS DCT ORSUM
Aircraft C414/L-A/S

Departure

Time 2026-04-26 18:15
Airport Kirkwall Airport (EGPA)

Arrival

Time 2026-04-26 19:23
Airport Oban Airport (EGEO)
Time Latitude Longitude Altitude Speed Heading
2026-04-26 17:49 58.95394 -2.90059 56 ft 0 kts 136°
2026-04-26 18:07 58.95391 -2.90055 56 ft 0 kts 135°
2026-04-26 18:09 58.95390 -2.90049 56 ft 1 kts 93°
2026-04-26 18:09 58.95397 -2.90051 56 ft 2 kts 306°
2026-04-26 18:10 58.95426 -2.90026 56 ft 10 kts 65°
2026-04-26 18:10 58.95465 -2.89908 56 ft 10 kts 45°
2026-04-26 18:10 58.95517 -2.89813 52 ft 10 kts 43°
2026-04-26 18:10 58.95566 -2.89729 56 ft 9 kts 43°
2026-04-26 18:11 58.95609 -2.89653 56 ft 8 kts 41°
2026-04-26 18:11 58.95644 -2.89592 56 ft 6 kts 42°
2026-04-26 18:11 58.95676 -2.89536 56 ft 8 kts 42°
2026-04-26 18:11 58.95716 -2.89468 56 ft 8 kts 43°
2026-04-26 18:12 58.95741 -2.89426 56 ft 0 kts 39°
2026-04-26 18:12 58.95755 -2.89398 56 ft 8 kts 45°
2026-04-26 18:13 58.95810 -2.89293 54 ft 11 kts 64°
2026-04-26 18:13 58.95822 -2.89141 53 ft 12 kts 86°
2026-04-26 18:13 58.95823 -2.88977 54 ft 11 kts 95°
2026-04-26 18:13 58.95818 -2.88895 52 ft 8 kts 100°
2026-04-26 18:14 58.95830 -2.88872 50 ft 6 kts 265°
2026-04-26 18:14 58.95820 -2.89224 52 ft 54 kts 267°
2026-04-26 18:14 58.95794 -2.90281 101 ft 96 kts 264°
2026-04-26 18:14 58.95799 -2.91670 357 ft 109 kts 268°
2026-04-26 18:15 58.95818 -2.93114 830 ft 102 kts 266°
2026-04-26 18:15 58.95769 -2.94536 1195 ft 110 kts 248°
2026-04-26 18:15 58.95254 -2.95461 1564 ft 113 kts 196°
2026-04-26 18:15 58.94447 -2.95936 1892 ft 121 kts 198°
2026-04-26 18:16 58.93631 -2.96379 2319 ft 122 kts 199°
2026-04-26 18:16 58.92009 -2.97468 3062 ft 123 kts 201°
2026-04-26 18:16 58.91188 -2.97913 3430 ft 123 kts 200°
2026-04-26 18:17 58.90349 -2.98222 3787 ft 126 kts 181°
2026-04-26 18:17 58.89473 -2.98069 4125 ft 127 kts 179°
2026-04-26 18:17 58.88604 -2.97848 4519 ft 124 kts 177°
2026-04-26 18:17 58.87745 -2.97551 4832 ft 128 kts 176°
2026-04-26 18:18 58.86861 -2.97462 5178 ft 125 kts 189°
2026-04-26 18:18 58.86012 -2.97625 5538 ft 123 kts 193°
2026-04-26 18:18 58.85145 -2.97774 5849 ft 126 kts 190°
2026-04-26 18:18 58.84289 -2.97998 6187 ft 125 kts 198°
2026-04-26 18:19 58.83458 -2.98418 6549 ft 123 kts 202°
2026-04-26 18:19 58.82617 -2.98751 6889 ft 126 kts 191°
2026-04-26 18:19 58.81740 -2.98817 7232 ft 125 kts 191°
2026-04-26 18:19 58.80869 -2.98937 7569 ft 126 kts 192°
2026-04-26 18:20 58.79996 -2.99113 7877 ft 127 kts 194°
2026-04-26 18:20 58.79105 -2.99295 8236 ft 126 kts 194°
2026-04-26 18:20 58.78253 -2.99560 8579 ft 126 kts 198°
2026-04-26 18:20 58.77962 -2.99669 8686 ft 126 kts 198°
2026-04-26 18:21 58.76536 -3.00238 9231 ft 126 kts 199°
2026-04-26 18:21 58.75670 -3.00559 9532 ft 128 kts 197°
2026-04-26 18:21 58.74808 -3.00942 9845 ft 127 kts 200°
2026-04-26 18:21 58.73941 -3.01323 10087 ft 130 kts 200°
2026-04-26 18:22 58.73037 -3.01785 10190 ft 141 kts 201°
2026-04-26 18:22 58.72048 -3.02320 10243 ft 153 kts 201°
2026-04-26 18:22 58.70987 -3.02963 10227 ft 165 kts 203°
2026-04-26 18:22 58.69885 -3.03720 10240 ft 170 kts 204°
2026-04-26 18:23 58.68734 -3.04364 10313 ft 172 kts 198°
2026-04-26 18:23 58.67513 -3.04707 10241 ft 184 kts 189°
2026-04-26 18:23 58.66214 -3.04795 10237 ft 187 kts 187°
2026-04-26 18:23 58.64905 -3.04880 10234 ft 189 kts 187°
2026-04-26 18:24 58.63582 -3.04975 10234 ft 190 kts 187°
2026-04-26 18:24 58.62261 -3.05093 10255 ft 190 kts 189°
2026-04-26 18:24 58.60935 -3.05250 10256 ft 191 kts 188°
2026-04-26 18:24 58.59603 -3.05403 10260 ft 192 kts 188°
2026-04-26 18:25 58.58267 -3.05554 10256 ft 193 kts 188°
2026-04-26 18:25 58.57379 -3.05653 10262 ft 193 kts 188°
2026-04-26 18:25 58.56040 -3.05802 10262 ft 193 kts 188°
2026-04-26 18:25 58.54262 -3.05993 10266 ft 193 kts 188°
2026-04-26 18:26 58.52920 -3.06135 10267 ft 193 kts 188°
2026-04-26 18:26 58.51580 -3.06308 10272 ft 192 kts 192°
2026-04-26 18:26 58.50693 -3.06592 10276 ft 191 kts 195°
2026-04-26 18:26 58.49390 -3.07103 10278 ft 191 kts 197°
2026-04-26 18:27 58.48126 -3.07853 10276 ft 189 kts 204°
2026-04-26 18:27 58.46886 -3.08710 10277 ft 189 kts 204°
2026-04-26 18:27 58.45653 -3.09603 10276 ft 190 kts 205°
2026-04-26 18:27 58.44456 -3.10565 10278 ft 187 kts 213°
2026-04-26 18:28 58.43396 -3.11965 10274 ft 184 kts 219°
2026-04-26 18:28 58.42363 -3.13364 10266 ft 181 kts 213°
2026-04-26 18:28 58.41231 -3.14405 10260 ft 180 kts 208°
2026-04-26 18:28 58.40092 -3.15375 10260 ft 179 kts 208°
2026-04-26 18:29 58.38961 -3.16329 10256 ft 178 kts 208°
2026-04-26 18:29 58.37830 -3.17279 10261 ft 176 kts 208°
2026-04-26 18:29 58.36734 -3.18305 10263 ft 175 kts 211°
2026-04-26 18:29 58.35659 -3.19391 10239 ft 175 kts 211°
2026-04-26 18:30 58.34584 -3.20480 10246 ft 175 kts 211°
2026-04-26 18:30 58.33506 -3.21565 10247 ft 175 kts 211°
2026-04-26 18:30 58.32431 -3.22646 10246 ft 175 kts 211°
2026-04-26 18:30 58.31357 -3.23722 10247 ft 174 kts 211°
2026-04-26 18:31 58.30283 -3.24796 10239 ft 175 kts 211°
2026-04-26 18:31 58.29205 -3.25871 10241 ft 175 kts 211°
2026-04-26 18:31 58.28126 -3.26946 10240 ft 175 kts 211°
2026-04-26 18:31 58.27044 -3.28022 10240 ft 175 kts 211°
2026-04-26 18:32 58.25964 -3.29094 10242 ft 175 kts 211°
2026-04-26 18:32 58.24898 -3.30218 10244 ft 175 kts 213°
2026-04-26 18:32 58.23842 -3.31359 10244 ft 175 kts 213°
2026-04-26 18:32 58.22788 -3.32497 10243 ft 174 kts 213°
2026-04-26 18:33 58.21730 -3.33636 10246 ft 174 kts 213°
2026-04-26 18:33 58.20677 -3.34778 10246 ft 174 kts 214°
2026-04-26 18:33 58.19632 -3.35942 10246 ft 174 kts 214°
2026-04-26 18:33 58.18587 -3.37111 10240 ft 174 kts 214°
2026-04-26 18:34 58.17542 -3.38276 10243 ft 174 kts 214°
2026-04-26 18:34 58.16501 -3.39447 10245 ft 174 kts 214°
2026-04-26 18:34 58.15466 -3.40643 10230 ft 174 kts 214°
2026-04-26 18:34 58.14441 -3.41847 10243 ft 173 kts 214°
2026-04-26 18:35 58.13417 -3.43058 10240 ft 173 kts 214°
2026-04-26 18:35 58.12396 -3.44264 10238 ft 173 kts 214°
2026-04-26 18:35 58.11367 -3.45448 10238 ft 173 kts 213°
2026-04-26 18:35 58.10331 -3.46617 10238 ft 173 kts 213°
2026-04-26 18:36 58.09297 -3.47778 10241 ft 173 kts 213°
2026-04-26 18:36 58.08263 -3.48937 10241 ft 173 kts 213°
2026-04-26 18:36 58.07226 -3.50095 10240 ft 173 kts 213°
2026-04-26 18:36 58.06188 -3.51253 10239 ft 173 kts 213°
2026-04-26 18:37 58.05150 -3.52404 10239 ft 173 kts 213°
2026-04-26 18:37 58.04099 -3.53517 10239 ft 173 kts 211°
2026-04-26 18:37 58.02997 -3.54454 10240 ft 174 kts 202°
2026-04-26 18:37 58.01839 -3.55152 10241 ft 175 kts 201°
2026-04-26 18:38 58.00673 -3.55835 10243 ft 176 kts 201°
2026-04-26 18:38 57.99505 -3.56513 10244 ft 176 kts 201°
2026-04-26 18:38 57.98336 -3.57189 10245 ft 176 kts 201°
2026-04-26 18:38 57.97165 -3.57860 10247 ft 176 kts 201°
2026-04-26 18:39 57.95994 -3.58531 10247 ft 176 kts 201°
2026-04-26 18:39 57.94827 -3.59215 10248 ft 176 kts 201°
2026-04-26 18:39 57.93665 -3.59924 10249 ft 176 kts 201°
2026-04-26 18:39 57.92502 -3.60634 10249 ft 175 kts 201°
2026-04-26 18:40 57.91343 -3.61340 10249 ft 175 kts 201°
2026-04-26 18:40 57.90198 -3.62039 10250 ft 175 kts 202°
2026-04-26 18:40 57.89038 -3.62740 10250 ft 175 kts 201°
2026-04-26 18:40 57.87874 -3.63439 10250 ft 175 kts 201°
2026-04-26 18:41 57.86715 -3.64138 10250 ft 174 kts 204°
2026-04-26 18:41 57.85637 -3.65131 10261 ft 172 kts 212°
2026-04-26 18:41 57.84588 -3.66236 10261 ft 173 kts 212°
2026-04-26 18:41 57.83541 -3.67344 10261 ft 173 kts 212°
2026-04-26 18:42 57.82492 -3.68452 10263 ft 173 kts 212°
2026-04-26 18:42 57.81442 -3.69559 10264 ft 173 kts 212°
2026-04-26 18:42 57.80387 -3.70669 10264 ft 174 kts 212°
2026-04-26 18:42 57.79333 -3.71775 10264 ft 174 kts 212°
2026-04-26 18:43 57.78285 -3.72904 10263 ft 173 kts 214°
2026-04-26 18:43 57.77252 -3.74079 10263 ft 174 kts 214°
2026-04-26 18:43 57.76222 -3.75255 10252 ft 174 kts 214°
2026-04-26 18:43 57.75190 -3.76429 10255 ft 174 kts 214°
2026-04-26 18:44 57.74159 -3.77602 10255 ft 174 kts 214°
2026-04-26 18:44 57.73126 -3.78772 10256 ft 174 kts 214°
2026-04-26 18:44 57.72101 -3.79967 10257 ft 173 kts 218°
2026-04-26 18:44 57.71152 -3.81338 10258 ft 172 kts 220°
2026-04-26 18:45 57.70216 -3.82741 10259 ft 172 kts 221°
2026-04-26 18:45 57.69292 -3.84168 10259 ft 172 kts 221°
2026-04-26 18:45 57.68370 -3.85603 10259 ft 172 kts 221°
2026-04-26 18:45 57.67448 -3.87037 10259 ft 173 kts 221°
2026-04-26 18:46 57.66526 -3.88468 10259 ft 173 kts 221°
2026-04-26 18:46 57.65601 -3.89900 10275 ft 173 kts 221°
2026-04-26 18:46 57.64675 -3.91328 10276 ft 173 kts 221°
2026-04-26 18:46 57.63749 -3.92755 10275 ft 173 kts 221°
2026-04-26 18:47 57.62820 -3.94183 10276 ft 173 kts 221°
2026-04-26 18:47 57.61842 -3.95481 10275 ft 173 kts 215°
2026-04-26 18:47 57.60827 -3.96646 10275 ft 174 kts 213°
2026-04-26 18:47 57.59787 -3.97794 10274 ft 174 kts 213°
2026-04-26 18:48 57.58744 -3.98938 10265 ft 174 kts 213°
2026-04-26 18:48 57.57695 -4.00114 10265 ft 174 kts 215°
2026-04-26 18:48 57.56744 -4.01492 10266 ft 173 kts 222°
2026-04-26 18:48 57.55827 -4.02954 10267 ft 174 kts 223°
2026-04-26 18:49 57.54932 -4.04463 10265 ft 174 kts 225°
2026-04-26 18:49 57.54065 -4.06036 10265 ft 174 kts 226°
2026-04-26 18:49 57.53210 -4.07619 10266 ft 173 kts 227°
2026-04-26 18:49 57.52426 -4.09285 10266 ft 173 kts 231°
2026-04-26 18:50 57.51695 -4.11062 10267 ft 173 kts 234°
2026-04-26 18:50 57.50979 -4.12861 10267 ft 173 kts 234°
2026-04-26 18:50 57.50262 -4.14661 10268 ft 173 kts 234°
2026-04-26 18:50 57.49544 -4.16459 10267 ft 173 kts 234°
2026-04-26 18:51 57.48823 -4.18258 10270 ft 173 kts 233°
2026-04-26 18:51 57.48114 -4.20070 10271 ft 174 kts 236°
2026-04-26 18:51 57.47410 -4.21903 10269 ft 175 kts 236°
2026-04-26 18:51 57.46698 -4.23744 10269 ft 176 kts 236°
2026-04-26 18:52 57.45983 -4.25594 10270 ft 177 kts 235°
2026-04-26 18:52 57.45271 -4.27459 10270 ft 177 kts 236°
2026-04-26 18:52 57.44569 -4.29336 10270 ft 177 kts 236°
2026-04-26 18:52 57.43867 -4.31216 10268 ft 177 kts 236°
2026-04-26 18:53 57.43162 -4.33094 10268 ft 177 kts 236°
2026-04-26 18:53 57.42460 -4.34962 10266 ft 176 kts 236°
2026-04-26 18:53 57.41759 -4.36825 10266 ft 176 kts 236°
2026-04-26 18:53 57.41057 -4.38692 10267 ft 177 kts 236°
2026-04-26 18:54 57.40351 -4.40563 10267 ft 177 kts 236°
2026-04-26 18:54 57.39643 -4.42431 10267 ft 178 kts 236°
2026-04-26 18:54 57.38933 -4.44304 10265 ft 177 kts 236°
2026-04-26 18:54 57.38221 -4.46176 10264 ft 177 kts 236°
2026-04-26 18:55 57.37510 -4.48038 10265 ft 177 kts 236°
2026-04-26 18:55 57.36796 -4.49903 10263 ft 177 kts 236°
2026-04-26 18:55 57.36083 -4.51762 10263 ft 176 kts 236°
2026-04-26 18:55 57.35370 -4.53611 10266 ft 177 kts 236°
2026-04-26 18:56 57.34654 -4.55469 10261 ft 177 kts 236°
2026-04-26 18:56 57.33939 -4.57325 10262 ft 177 kts 236°
2026-04-26 18:56 57.33220 -4.59183 10260 ft 178 kts 236°
2026-04-26 18:56 57.32501 -4.61038 10260 ft 177 kts 236°
2026-04-26 18:57 57.31791 -4.62865 10263 ft 177 kts 236°
2026-04-26 18:57 57.31306 -4.64114 10263 ft 177 kts 236°
2026-04-26 18:57 57.30342 -4.66595 10263 ft 178 kts 236°
2026-04-26 18:57 57.29621 -4.68448 10264 ft 178 kts 236°
2026-04-26 18:58 57.28924 -4.70287 10256 ft 177 kts 236°
2026-04-26 18:58 57.28218 -4.72147 10257 ft 177 kts 236°
2026-04-26 18:58 57.27510 -4.74006 10256 ft 177 kts 236°
2026-04-26 18:58 57.26804 -4.75866 10257 ft 176 kts 236°
2026-04-26 18:59 57.26089 -4.77699 10274 ft 176 kts 236°
2026-04-26 18:59 57.25358 -4.79512 10274 ft 176 kts 236°
2026-04-26 18:59 57.24628 -4.81315 10272 ft 175 kts 236°
2026-04-26 18:59 57.23900 -4.83110 10272 ft 175 kts 236°
2026-04-26 19:00 57.23171 -4.84904 10269 ft 174 kts 236°
2026-04-26 19:00 57.22439 -4.86676 10270 ft 173 kts 236°
2026-04-26 19:00 57.21710 -4.88449 10270 ft 174 kts 236°
2026-04-26 19:00 57.20983 -4.90229 10268 ft 173 kts 236°
2026-04-26 19:01 57.20266 -4.92011 10269 ft 173 kts 237°
2026-04-26 19:01 57.19554 -4.93807 10270 ft 174 kts 237°
2026-04-26 19:01 57.18843 -4.95605 10270 ft 174 kts 237°
2026-04-26 19:01 57.18130 -4.97412 10270 ft 174 kts 237°
2026-04-26 19:02 57.17425 -4.99227 10277 ft 174 kts 238°
2026-04-26 19:02 57.16729 -5.01042 10280 ft 173 kts 237°
2026-04-26 19:02 57.16038 -5.02849 10280 ft 173 kts 237°
2026-04-26 19:02 57.15579 -5.04050 10280 ft 173 kts 237°
2026-04-26 19:03 57.14650 -5.06478 10277 ft 174 kts 237°
2026-04-26 19:03 57.13955 -5.08293 10277 ft 174 kts 237°
2026-04-26 19:03 57.13259 -5.10105 10276 ft 173 kts 237°
2026-04-26 19:03 57.12565 -5.11914 10278 ft 173 kts 237°
2026-04-26 19:04 57.11866 -5.13724 10281 ft 174 kts 237°
2026-04-26 19:04 57.11166 -5.15538 10282 ft 174 kts 238°
2026-04-26 19:04 57.10476 -5.17381 10280 ft 175 kts 238°
2026-04-26 19:04 57.09794 -5.19219 10279 ft 173 kts 238°
2026-04-26 19:05 57.07766 -5.21375 10289 ft 187 kts 189°
2026-04-26 19:05 57.06465 -5.21476 10294 ft 187 kts 188°
2026-04-26 19:05 57.05167 -5.21573 10296 ft 186 kts 187°
2026-04-26 19:06 57.03883 -5.21617 10093 ft 187 kts 187°
2026-04-26 19:06 57.02555 -5.21696 9736 ft 191 kts 187°
2026-04-26 19:06 57.01197 -5.21809 9322 ft 196 kts 188°
2026-04-26 19:06 56.99875 -5.22016 8956 ft 194 kts 192°
2026-04-26 19:07 56.98524 -5.22370 8645 ft 191 kts 194°
2026-04-26 19:07 56.97232 -5.22819 8333 ft 188 kts 196°
2026-04-26 19:07 56.95949 -5.23246 7903 ft 191 kts 194°
2026-04-26 19:07 56.94662 -5.23760 7516 ft 188 kts 199°
2026-04-26 19:08 56.93411 -5.24397 7212 ft 185 kts 199°
2026-04-26 19:08 56.92163 -5.24966 6960 ft 184 kts 196°
2026-04-26 19:08 56.90914 -5.25387 6719 ft 184 kts 193°
2026-04-26 19:08 56.89602 -5.25637 6291 ft 190 kts 183°
2026-04-26 19:09 56.88339 -5.25579 6263 ft 174 kts 187°
2026-04-26 19:09 56.87131 -5.25827 5943 ft 177 kts 195°
2026-04-26 19:09 56.85945 -5.26316 5756 ft 172 kts 197°
2026-04-26 19:09 56.84776 -5.26718 5777 ft 172 kts 192°
2026-04-26 19:10 56.83570 -5.26924 5760 ft 176 kts 187°
2026-04-26 19:10 56.82341 -5.26993 5769 ft 177 kts 185°
2026-04-26 19:10 56.81101 -5.27008 5716 ft 181 kts 185°
2026-04-26 19:10 56.79870 -5.27236 5772 ft 177 kts 193°
2026-04-26 19:11 56.78659 -5.27612 5772 ft 177 kts 194°
2026-04-26 19:11 56.77446 -5.27998 5775 ft 177 kts 194°
2026-04-26 19:11 56.76234 -5.28387 5773 ft 176 kts 194°
2026-04-26 19:11 56.75016 -5.28773 5706 ft 182 kts 193°
2026-04-26 19:12 56.74178 -5.29033 5553 ft 186 kts 194°
2026-04-26 19:12 56.72911 -5.29494 5280 ft 185 kts 195°
2026-04-26 19:12 56.71639 -5.29958 4927 ft 187 kts 194°
2026-04-26 19:12 56.70355 -5.30382 4522 ft 189 kts 194°
2026-04-26 19:13 56.69058 -5.30846 4049 ft 191 kts 195°
2026-04-26 19:13 56.67759 -5.31344 3687 ft 187 kts 196°
2026-04-26 19:13 56.66546 -5.31989 3488 ft 177 kts 203°
2026-04-26 19:13 56.65421 -5.32851 3487 ft 175 kts 207°
2026-04-26 19:14 56.64312 -5.33748 3495 ft 174 kts 207°
2026-04-26 19:14 56.63211 -5.34655 3500 ft 174 kts 207°
2026-04-26 19:14 56.62108 -5.35561 3500 ft 174 kts 206°
2026-04-26 19:14 56.61345 -5.36028 3499 ft 175 kts 198°
2026-04-26 19:15 56.59718 -5.36425 3496 ft 177 kts 188°
2026-04-26 19:15 56.58470 -5.36626 3336 ft 184 kts 188°
2026-04-26 19:15 56.57194 -5.36881 3229 ft 184 kts 190°
2026-04-26 19:15 56.55915 -5.37175 3006 ft 187 kts 190°
2026-04-26 19:16 56.54609 -5.37448 2757 ft 186 kts 192°
2026-04-26 19:16 56.53391 -5.37930 2692 ft 175 kts 197°
2026-04-26 19:16 56.52219 -5.38468 2503 ft 172 kts 198°
2026-04-26 19:16 56.51082 -5.39048 2286 ft 169 kts 199°
2026-04-26 19:17 56.49967 -5.39674 2017 ft 167 kts 199°
2026-04-26 19:17 56.48868 -5.40119 1969 ft 156 kts 196°
2026-04-26 19:17 56.47851 -5.40602 2025 ft 147 kts 198°
2026-04-26 19:17 56.46882 -5.41090 2018 ft 141 kts 194°
2026-04-26 19:18 56.45965 -5.40743 2081 ft 136 kts 141°
2026-04-26 19:18 56.45607 -5.39197 1979 ft 143 kts 81°
2026-04-26 19:18 56.46087 -5.37704 1875 ft 141 kts 43°
2026-04-26 19:18 56.46826 -5.36530 1546 ft 142 kts 35°
2026-04-26 19:19 56.47596 -5.35504 1357 ft 136 kts 39°
2026-04-26 19:19 56.48036 -5.34067 1285 ft 134 kts 86°
2026-04-26 19:19 56.47632 -5.32684 1214 ft 133 kts 158°
2026-04-26 19:19 56.46822 -5.33061 1223 ft 130 kts 240°
2026-04-26 19:20 56.46688 -5.34691 1120 ft 138 kts 262°
2026-04-26 19:20 56.46547 -5.35798 1133 ft 133 kts 253°
2026-04-26 19:20 56.46151 -5.37872 1096 ft 128 kts 251°
2026-04-26 19:20 56.45883 -5.39364 1092 ft 124 kts 257°
2026-04-26 19:21 56.45941 -5.40838 1082 ft 114 kts 286°
2026-04-26 19:21 56.46192 -5.42138 1073 ft 108 kts 298°
2026-04-26 19:21 56.46783 -5.42844 1115 ft 110 kts 353°
2026-04-26 19:21 56.47579 -5.42760 1074 ft 112 kts
2026-04-26 19:22 56.48343 -5.42503 1165 ft 109 kts 20°
2026-04-26 19:22 56.48875 -5.41527 1115 ft 116 kts 77°
2026-04-26 19:22 56.48584 -5.40334 825 ft 110 kts 156°
2026-04-26 19:22 56.47890 -5.39843 426 ft 103 kts 170°
2026-04-26 19:23 56.47208 -5.39837 155 ft 96 kts 189°
2026-04-26 19:23 56.46578 -5.39950 46 ft 80 kts 181°
2026-04-26 19:23 56.46152 -5.40019 39 ft 31 kts 188°
2026-04-26 19:23 56.46013 -5.40051 40 ft 11 kts 197°
2026-04-26 19:24 56.45972 -5.40045 39 ft 5 kts 65°
2026-04-26 19:24 56.45992 -5.40006 39 ft 6 kts 52°
2026-04-26 19:24 56.46039 -5.39908 39 ft 2 kts 68°
2026-04-26 19:25 56.46051 -5.39881 41 ft 2 kts 35°
2026-04-26 19:25 56.46052 -5.39879 41 ft 0 kts 42°
2026-04-26 19:25 56.46053 -5.39879 41 ft 0 kts 37°
2026-04-26 19:26 56.46020 -5.39933 39 ft 0 kts 37°
2026-04-26 19:26 56.46034 -5.39946 40 ft 4 kts 296°
2026-04-26 19:27 56.46049 -5.40001 39 ft 5 kts 302°
2026-04-26 19:27 56.46120 -5.40031 38 ft 17 kts
2026-04-26 19:27 56.46251 -5.40012 39 ft 22 kts
2026-04-26 19:27 56.46391 -5.39984 39 ft 18 kts
2026-04-26 19:28 56.46494 -5.39966 41 ft 12 kts
2026-04-26 19:28 56.46555 -5.39927 41 ft 8 kts 82°
2026-04-26 19:28 56.46555 -5.39842 40 ft 5 kts 83°
2026-04-26 19:28 56.46572 -5.39836 40 ft 1 kts 297°
2026-04-26 19:29 56.46573 -5.39837 40 ft 0 kts 296°